createdAt,value
2023-04-28T00:00:04.655Z,10.80
2023-04-28T00:02:34.384Z,12.07
2023-04-28T00:05:02.574Z,10.87
2023-04-28T00:07:30.716Z,12.00
2023-04-28T00:09:58.551Z,9.80
2023-04-28T00:12:26.522Z,10.07
2023-04-28T00:14:54.736Z,9.90
2023-04-28T00:17:24.129Z,10.80
2023-04-28T00:19:52.994Z,9.73
2023-04-28T00:22:20.914Z,10.30
2023-04-28T00:24:48.785Z,10.80
2023-04-28T00:27:16.749Z,11.20
2023-04-28T00:29:44.778Z,10.40
2023-04-28T00:32:13.603Z,10.73
2023-04-28T00:34:43.018Z,11.37
2023-04-28T00:37:10.916Z,11.00
2023-04-28T00:39:38.760Z,9.70
2023-04-28T00:42:06.738Z,10.87
2023-04-28T00:44:34.628Z,10.00
2023-04-28T00:47:02.684Z,10.17
2023-04-28T00:49:31.369Z,10.57
2023-04-28T00:52:03.777Z,10.50
2023-04-28T00:54:31.829Z,10.20
2023-04-28T00:56:59.833Z,12.83
2023-04-28T00:59:27.665Z,11.17
2023-04-28T01:01:56.324Z,11.10
2023-04-28T01:04:25.033Z,10.50
2023-04-28T01:06:54.634Z,11.93
2023-04-28T01:09:23.976Z,11.97
2023-04-28T01:11:53.470Z,11.03
2023-04-28T01:14:35.722Z,11.63
2023-04-28T01:17:04.729Z,11.27
2023-04-28T01:19:32.771Z,11.03
2023-04-28T01:22:01.043Z,12.10
2023-04-28T01:24:30.336Z,9.57
2023-04-28T01:27:03.320Z,10.47
2023-04-28T01:29:31.234Z,10.73
2023-04-28T01:31:59.576Z,10.57
2023-04-28T01:34:27.724Z,9.90
2023-04-28T01:36:56.425Z,11.20
2023-04-28T01:39:24.554Z,10.30
2023-04-28T01:41:53.805Z,9.53
2023-04-28T01:44:21.815Z,10.00
2023-04-28T01:46:49.937Z,9.60
2023-04-28T01:49:17.890Z,9.47
2023-04-28T01:51:45.863Z,10.13
2023-04-28T01:54:13.773Z,11.07
2023-04-28T01:56:42.314Z,9.93
2023-04-28T01:59:13.972Z,9.40
2023-04-28T02:01:41.861Z,11.50
2023-04-28T02:04:10.066Z,10.67
2023-04-28T02:06:39.335Z,9.43
2023-04-28T02:09:07.337Z,10.13
2023-04-28T02:11:35.280Z,10.07
2023-04-28T02:14:03.352Z,9.00
2023-04-28T02:16:33.246Z,10.20
2023-04-28T02:19:01.651Z,9.30
2023-04-28T02:21:29.636Z,9.13
2023-04-28T02:23:57.693Z,10.07
2023-04-28T02:26:25.864Z,9.33
2023-04-28T02:28:53.848Z,10.10
2023-04-28T02:31:21.782Z,9.40
2023-04-28T02:33:51.139Z,10.13
2023-04-28T02:36:19.152Z,9.03
2023-04-28T02:38:47.076Z,8.97
2023-04-28T02:41:15.551Z,9.47
2023-04-28T02:43:43.585Z,8.57
2023-04-28T02:46:11.763Z,9.83
2023-04-28T02:48:40.727Z,8.53
2023-04-28T02:51:10.666Z,9.90
2023-04-28T02:53:39.146Z,8.70
2023-04-28T02:56:07.554Z,8.77
2023-04-28T02:58:35.608Z,8.40
2023-04-28T03:01:04.980Z,8.00
2023-04-28T03:03:33.659Z,8.60
2023-04-28T03:06:01.815Z,9.00
2023-04-28T03:08:31.093Z,9.00
2023-04-28T03:10:58.929Z,8.70
2023-04-28T03:13:27.245Z,8.60
2023-04-28T03:15:55.489Z,8.60
2023-04-28T03:18:24.530Z,9.00
2023-04-28T03:20:52.493Z,9.40
2023-04-28T03:23:21.112Z,8.80
2023-04-28T03:25:50.435Z,8.10
2023-04-28T03:28:18.415Z,8.03
2023-04-28T03:30:46.351Z,8.00
2023-04-28T03:33:14.312Z,9.27
2023-04-28T03:35:42.318Z,7.83
2023-04-28T03:38:10.714Z,8.77
2023-04-28T03:40:39.057Z,8.10
2023-04-28T03:43:14.081Z,7.97
2023-04-28T03:45:50.368Z,9.57
2023-04-28T03:48:18.348Z,8.90
2023-04-28T03:50:46.446Z,8.10
2023-04-28T03:53:14.514Z,8.27
2023-04-28T03:55:42.443Z,8.63
2023-04-28T03:58:10.666Z,8.50
2023-04-28T04:00:40.088Z,7.93
2023-04-28T04:03:08.217Z,7.50
2023-04-28T04:05:36.662Z,7.33
2023-04-28T04:08:06.011Z,8.17
2023-04-28T04:10:34.440Z,8.10
2023-04-28T04:13:02.381Z,8.40
2023-04-28T04:15:30.373Z,7.33
2023-04-28T04:18:00.392Z,8.00
2023-04-28T04:20:35.581Z,8.00
2023-04-28T04:23:03.700Z,8.73
2023-04-28T04:25:32.212Z,10.00
2023-04-28T04:28:00.677Z,8.30
2023-04-28T04:30:28.984Z,7.93
2023-04-28T04:32:56.928Z,7.97
2023-04-28T04:35:26.506Z,8.30
2023-04-28T04:37:54.775Z,7.13
2023-04-28T04:40:22.764Z,7.93
2023-04-28T04:42:51.514Z,7.33
2023-04-28T04:45:21.408Z,7.17
2023-04-28T04:47:50.636Z,8.47
2023-04-28T04:50:19.033Z,7.23
2023-04-28T04:52:48.338Z,7.90
2023-04-28T04:55:16.481Z,7.07
2023-04-28T04:57:44.621Z,6.83
2023-04-28T05:00:30.554Z,8.33
2023-04-28T05:03:01.555Z,7.87
2023-04-28T05:05:29.655Z,7.73
2023-04-28T05:08:14.161Z,8.00
2023-04-28T05:10:42.315Z,7.87
2023-04-28T05:13:10.749Z,7.90
2023-04-28T05:15:39.424Z,8.20
2023-04-28T05:18:28.803Z,12.80
2023-04-28T05:20:56.914Z,12.27
2023-04-28T05:23:26.426Z,8.07
2023-04-28T05:25:54.385Z,7.10
2023-04-28T05:28:22.492Z,7.07
2023-04-28T05:30:53.899Z,7.47
2023-04-28T05:33:22.415Z,7.00
2023-04-28T05:35:50.516Z,7.43
2023-04-28T05:38:18.596Z,7.20
2023-04-28T05:40:49.646Z,8.27
2023-04-28T05:43:18.251Z,8.13
2023-04-28T05:45:46.400Z,7.23
2023-04-28T05:48:14.817Z,7.40
2023-04-28T05:50:42.705Z,7.93
2023-04-28T05:53:12.007Z,8.47
2023-04-28T05:55:40.410Z,7.13
2023-04-28T05:58:09.728Z,7.40
2023-04-28T06:00:38.824Z,7.90
2023-04-28T06:03:07.107Z,7.37
2023-04-28T06:05:35.361Z,7.43
2023-04-28T06:08:03.592Z,7.97
2023-04-28T06:10:32.624Z,7.30
2023-04-28T06:13:00.516Z,8.30
2023-04-28T06:15:30.086Z,7.60
2023-04-28T06:17:59.772Z,7.30
2023-04-28T06:20:27.646Z,7.87
2023-04-28T06:22:56.201Z,8.47
2023-04-28T06:25:24.211Z,7.47
2023-04-28T06:27:52.185Z,7.50
2023-04-28T06:30:22.460Z,8.27
2023-04-28T06:32:52.261Z,7.80
2023-04-28T06:35:20.524Z,7.77
2023-04-28T06:37:48.512Z,8.53
2023-04-28T06:40:17.052Z,8.40
2023-04-28T06:42:52.394Z,8.60
2023-04-28T06:45:25.237Z,7.83
2023-04-28T06:47:56.517Z,7.33
2023-04-28T06:50:24.904Z,9.17
2023-04-28T06:52:52.788Z,8.50
2023-04-28T06:55:22.403Z,8.80
2023-04-28T06:57:51.359Z,8.80
2023-04-28T07:00:19.676Z,8.37
2023-04-28T07:02:47.708Z,8.27
2023-04-28T07:05:17.182Z,8.23
2023-04-28T07:07:45.155Z,8.57
2023-04-28T07:10:13.388Z,7.50
2023-04-28T07:12:41.386Z,7.90
2023-04-28T07:15:10.472Z,7.77
2023-04-28T07:17:38.758Z,8.23
2023-04-28T07:20:07.972Z,10.10
2023-04-28T07:22:38.557Z,8.80
2023-04-28T07:25:06.849Z,8.93
2023-04-28T07:27:34.731Z,8.23
2023-04-28T07:30:11.594Z,13.10
2023-04-28T07:32:43.830Z,11.60
2023-04-28T07:35:11.762Z,9.10
2023-04-28T07:37:41.236Z,9.37
2023-04-28T07:40:10.100Z,8.20
2023-04-28T07:42:38.061Z,9.17
2023-04-28T07:45:07.074Z,7.17
2023-04-28T07:47:35.526Z,7.90
2023-04-28T07:50:05.268Z,7.60
2023-04-28T07:52:33.251Z,8.00
2023-04-28T07:55:03.072Z,8.50
2023-04-28T07:57:31.498Z,8.10
2023-04-28T07:59:59.718Z,7.70
2023-04-28T08:02:27.809Z,8.10
2023-04-28T08:04:55.953Z,8.30
2023-04-28T08:07:24.607Z,8.63
2023-04-28T08:09:53.899Z,7.80
2023-04-28T08:12:23.242Z,6.67
2023-04-28T08:14:51.169Z,6.87
2023-04-28T08:17:19.162Z,7.10
2023-04-28T08:19:47.607Z,7.50
2023-04-28T08:22:15.809Z,7.30
2023-04-28T08:24:43.759Z,6.83
2023-04-28T08:27:11.895Z,8.07
2023-04-28T08:29:41.262Z,7.40
2023-04-28T08:32:09.194Z,7.40
2023-04-28T08:34:37.121Z,9.10
2023-04-28T08:37:06.811Z,8.67
2023-04-28T08:39:35.390Z,6.70
2023-04-28T08:42:05.626Z,7.53
2023-04-28T08:44:38.618Z,6.90
2023-04-28T08:47:13.756Z,6.40
2023-04-28T08:49:42.543Z,6.30
2023-04-28T08:52:12.660Z,6.60
2023-04-28T08:54:41.693Z,6.50
2023-04-28T08:57:11.110Z,6.10
2023-04-28T08:59:40.729Z,6.53
2023-04-28T09:02:10.538Z,6.07
2023-04-28T09:04:39.019Z,5.83
2023-04-28T09:07:12.276Z,6.33
2023-04-28T09:09:40.976Z,5.40
2023-04-28T09:12:09.196Z,5.80
2023-04-28T09:14:38.520Z,9.40
2023-04-28T09:17:13.383Z,4.20
2023-04-28T09:19:43.323Z,4.77
2023-04-28T09:22:25.553Z,4.33
2023-04-28T09:24:55.412Z,4.93
2023-04-28T09:27:28.507Z,4.63
2023-04-28T09:29:56.622Z,4.50
2023-04-28T09:32:28.092Z,4.50
2023-04-28T09:34:57.475Z,4.00
2023-04-28T09:37:27.167Z,4.90
2023-04-28T09:39:56.010Z,4.60
2023-04-28T09:42:32.955Z,5.10
2023-04-28T09:45:02.935Z,4.57
2023-04-28T09:47:35.519Z,4.63
2023-04-28T09:50:06.102Z,4.70
2023-04-28T09:52:34.917Z,5.53
2023-04-28T09:55:03.992Z,4.30
2023-04-28T09:57:33.530Z,4.93
2023-04-28T10:00:02.470Z,4.50
2023-04-28T10:05:10.092Z,4.70
2023-04-28T10:07:40.059Z,4.50
2023-04-28T10:10:09.089Z,5.27
2023-04-28T10:12:38.607Z,5.13
2023-04-28T10:15:08.709Z,4.50
2023-04-28T10:17:38.308Z,4.77
2023-04-28T10:20:08.667Z,4.50
2023-04-28T10:22:59.077Z,4.57
2023-04-28T10:25:28.567Z,4.50
2023-04-28T10:27:57.233Z,4.50
2023-04-28T10:30:29.203Z,4.43
2023-04-28T10:33:27.477Z,4.80
2023-04-28T10:35:55.673Z,4.50
2023-04-28T10:38:23.584Z,4.60
2023-04-28T10:40:52.375Z,4.40
2023-04-28T10:43:40.365Z,4.70
2023-04-28T10:46:11.745Z,4.67
2023-04-28T10:49:08.292Z,4.63
2023-04-28T10:51:37.580Z,5.00
2023-04-28T10:54:28.230Z,4.53
2023-04-28T10:57:19.185Z,5.50
2023-04-28T10:59:51.840Z,4.60
2023-04-28T11:02:43.677Z,4.60
2023-04-28T11:05:19.416Z,5.27
2023-04-28T11:08:33.414Z,7.10
2023-04-28T11:11:18.293Z,4.53
2023-04-28T11:13:47.881Z,5.33
2023-04-28T11:16:17.744Z,4.70
2023-04-28T11:18:55.938Z,4.03
2023-04-28T11:21:28.110Z,4.40
2023-04-28T11:23:56.469Z,5.10
2023-04-28T11:26:24.765Z,4.37
2023-04-28T11:28:54.051Z,5.37
2023-04-28T11:31:24.289Z,5.43
2023-04-28T11:33:59.982Z,4.47
2023-04-28T11:36:31.780Z,4.30
2023-04-28T11:38:59.987Z,4.60
2023-04-28T11:41:27.990Z,4.60
2023-04-28T11:43:56.031Z,4.67
2023-04-28T11:46:25.761Z,4.70
2023-04-28T11:49:06.557Z,4.60
2023-04-28T11:51:39.953Z,5.47
2023-04-28T11:54:11.792Z,5.13
2023-04-28T11:56:40.647Z,5.10
2023-04-28T11:59:10.692Z,4.70
2023-04-28T12:01:47.043Z,5.67
2023-04-28T12:04:15.606Z,5.20
2023-04-28T12:06:45.068Z,4.97
2023-04-28T12:09:17.334Z,5.37
2023-04-28T12:11:58.146Z,5.10
2023-04-28T12:14:26.677Z,5.30
2023-04-28T12:16:54.671Z,5.47
2023-04-28T12:19:22.597Z,5.20
2023-04-28T12:22:05.706Z,5.20
2023-04-28T12:24:35.648Z,5.07
2023-04-28T12:27:21.709Z,5.20
2023-04-28T12:29:51.003Z,4.80
2023-04-28T12:32:20.355Z,4.40
2023-04-28T12:34:50.693Z,5.90
2023-04-28T12:37:22.425Z,4.80
2023-04-28T12:39:50.333Z,4.50
2023-04-28T12:42:18.202Z,4.97
2023-04-28T12:44:46.435Z,4.90
2023-04-28T12:47:14.504Z,4.83
2023-04-28T12:49:42.489Z,4.73
2023-04-28T12:52:10.791Z,5.13
2023-04-28T12:54:46.885Z,13.43
2023-04-28T12:57:15.191Z,8.97
2023-04-28T12:59:43.138Z,9.43
2023-04-28T13:02:11.510Z,5.63
2023-04-28T13:04:39.705Z,5.63
2023-04-28T13:07:08.302Z,6.33
2023-04-28T13:09:38.572Z,5.60
2023-04-28T13:12:08.527Z,6.03
2023-04-28T13:14:36.674Z,5.90
2023-04-28T13:17:04.963Z,5.27
2023-04-28T13:19:34.252Z,4.97
2023-04-28T13:22:05.180Z,5.07
2023-04-28T13:24:34.572Z,6.10
2023-04-28T13:27:04.086Z,4.70
2023-04-28T13:29:33.363Z,5.47
2023-04-28T13:32:01.434Z,10.73
2023-04-28T13:34:29.331Z,6.07
2023-04-28T13:36:57.500Z,6.20
2023-04-28T13:39:25.507Z,7.57
2023-04-28T13:41:53.431Z,6.37
2023-04-28T13:44:21.540Z,6.57
2023-04-28T13:46:50.875Z,6.70
2023-04-28T13:49:18.766Z,5.80
2023-04-28T13:51:46.602Z,6.53
2023-04-28T13:54:14.606Z,7.03
2023-04-28T13:56:42.519Z,5.70
2023-04-28T13:59:10.491Z,6.40
2023-04-28T14:01:38.599Z,6.27
2023-04-28T14:04:08.046Z,5.53
2023-04-28T14:06:36.055Z,5.23
2023-04-28T14:09:04.107Z,5.43
2023-04-28T14:11:31.993Z,5.40
2023-04-28T14:14:00.040Z,7.07
2023-04-28T14:16:29.072Z,6.07
2023-04-28T14:18:57.001Z,6.37
2023-04-28T14:21:26.675Z,6.90
2023-04-28T14:23:54.620Z,5.90
2023-04-28T14:26:23.822Z,5.77
2023-04-28T14:28:51.833Z,6.00
2023-04-28T14:31:19.837Z,6.17
2023-04-28T14:33:47.828Z,12.17
2023-04-28T14:36:15.818Z,13.50
2023-04-28T14:38:45.047Z,10.83
2023-04-28T14:41:12.949Z,14.00
2023-04-28T14:43:41.090Z,7.53
2023-04-28T14:46:09.103Z,6.13
2023-04-28T14:48:37.862Z,6.60
2023-04-28T14:51:05.926Z,6.37
2023-04-28T14:53:34.394Z,5.90
2023-04-28T14:56:17.895Z,6.00
2023-04-28T14:58:47.312Z,5.40
2023-04-28T15:01:15.317Z,5.37
2023-04-28T15:03:44.484Z,6.80
2023-04-28T15:06:13.277Z,6.10
2023-04-28T15:08:41.322Z,7.40
2023-04-28T15:11:10.842Z,7.10
2023-04-28T15:13:40.005Z,6.20
2023-04-28T15:16:09.965Z,6.60
2023-04-28T15:18:38.410Z,7.30
2023-04-28T15:21:07.366Z,7.73
2023-04-28T15:23:35.302Z,7.37
2023-04-28T15:26:03.595Z,6.27
2023-04-28T15:28:32.890Z,6.03
2023-04-28T15:31:00.731Z,5.87
2023-04-28T15:33:28.822Z,6.03
2023-04-28T15:35:56.724Z,6.17
2023-04-28T15:38:24.611Z,5.70
2023-04-28T15:40:52.546Z,6.10
2023-04-28T15:43:20.530Z,5.90
2023-04-28T15:45:49.806Z,6.47
2023-04-28T15:48:17.756Z,6.10
2023-04-28T15:50:46.583Z,6.30
2023-04-28T15:53:14.494Z,5.37
2023-04-28T15:55:42.788Z,6.43
2023-04-28T15:58:10.900Z,5.70
2023-04-28T16:00:40.577Z,5.27
2023-04-28T16:03:10.109Z,6.30
2023-04-28T16:05:38.863Z,7.00
2023-04-28T16:08:07.135Z,6.83
2023-04-28T16:10:35.048Z,5.70
2023-04-28T16:13:05.227Z,7.10
2023-04-28T16:15:34.323Z,6.00
2023-04-28T16:18:02.425Z,5.40
2023-04-28T16:20:31.849Z,5.70
2023-04-28T16:22:59.737Z,5.40
2023-04-28T16:25:27.843Z,5.40
2023-04-28T16:27:55.801Z,5.67
2023-04-28T16:30:23.978Z,6.20
2023-04-28T16:32:52.859Z,5.70
2023-04-28T16:35:21.688Z,6.17
2023-04-28T16:37:51.044Z,7.60
2023-04-28T16:40:19.393Z,6.30
2023-04-28T16:42:47.252Z,5.40
2023-04-28T16:45:15.563Z,5.13
2023-04-28T16:47:44.011Z,18.30
2023-04-28T16:50:14.451Z,10.60
2023-04-28T16:52:42.376Z,6.10
2023-04-28T16:55:11.816Z,5.10
2023-04-28T16:57:39.626Z,5.30
2023-04-28T17:00:09.360Z,5.80
2023-04-28T17:02:37.478Z,5.70
2023-04-28T17:05:06.090Z,5.63
2023-04-28T17:07:33.934Z,6.00
2023-04-28T17:10:01.964Z,6.20
2023-04-28T17:12:31.397Z,6.60
2023-04-28T17:14:59.234Z,6.40
2023-04-28T17:17:27.240Z,6.50
2023-04-28T17:19:55.196Z,7.13
2023-04-28T17:22:23.089Z,6.20
2023-04-28T17:24:51.011Z,6.70
2023-04-28T17:27:18.917Z,6.33
2023-04-28T17:29:48.885Z,6.83
2023-04-28T17:32:16.940Z,6.40
2023-04-28T17:34:44.846Z,6.80
2023-04-28T17:37:12.815Z,6.63
2023-04-28T17:39:40.674Z,6.30
2023-04-28T17:42:08.648Z,5.40
2023-04-28T17:44:36.638Z,6.40
2023-04-28T17:47:05.914Z,6.43
2023-04-28T17:49:33.853Z,5.50
2023-04-28T17:52:01.871Z,6.97
2023-04-28T17:54:30.864Z,6.30
2023-04-28T17:56:58.690Z,6.00
2023-04-28T17:59:26.679Z,6.30
2023-04-28T18:01:56.387Z,6.23
2023-04-28T18:04:25.789Z,6.67
2023-04-28T18:06:53.688Z,6.33
2023-04-28T18:09:21.614Z,6.40
2023-04-28T18:11:49.571Z,6.57
2023-04-28T18:14:18.484Z,6.97
2023-04-28T18:16:46.733Z,6.97
2023-04-28T18:19:14.657Z,6.73
2023-04-28T18:21:43.911Z,6.93
2023-04-28T18:24:11.933Z,6.73
2023-04-28T18:26:39.769Z,7.20
2023-04-28T18:29:07.613Z,7.83
2023-04-28T18:31:35.689Z,6.53
2023-04-28T18:34:05.065Z,10.77
2023-04-28T18:36:34.824Z,15.30
2023-04-28T18:39:06.183Z,11.70
2023-04-28T18:41:35.789Z,8.07
2023-04-28T18:44:04.018Z,7.60
2023-04-28T18:46:32.748Z,8.73
2023-04-28T18:49:00.747Z,7.30
2023-04-28T18:51:28.639Z,8.50
2023-04-28T18:53:56.908Z,7.83
2023-04-28T18:56:26.144Z,7.00
2023-04-28T18:58:54.048Z,7.23
2023-04-28T19:01:24.801Z,7.17
2023-04-28T19:03:53.228Z,7.63
2023-04-28T19:06:21.938Z,7.07
2023-04-28T19:08:49.816Z,7.37
2023-04-28T19:11:17.780Z,7.10
2023-04-28T19:13:47.159Z,6.40
2023-04-28T19:16:15.146Z,8.23
2023-04-28T19:18:44.438Z,6.80
2023-04-28T19:21:13.727Z,8.90
2023-04-28T19:23:41.785Z,6.77
2023-04-28T19:26:10.598Z,7.00
2023-04-28T19:28:38.470Z,6.40
2023-04-28T19:31:09.343Z,7.17
2023-04-28T19:33:37.285Z,7.63
2023-04-28T19:36:09.747Z,7.57
2023-04-28T19:38:40.236Z,8.30
2023-04-28T19:41:08.222Z,7.83
2023-04-28T19:43:36.644Z,11.53
2023-04-28T19:46:05.002Z,10.40
2023-04-28T19:48:34.524Z,8.23
2023-04-28T19:51:02.371Z,8.37
2023-04-28T19:53:30.285Z,8.60
2023-04-28T19:56:01.798Z,10.00
2023-04-28T19:58:29.730Z,8.30
2023-04-28T20:00:58.284Z,7.77
2023-04-28T20:03:26.327Z,10.17
2023-04-28T20:05:55.631Z,10.17
2023-04-28T20:08:25.547Z,8.67
2023-04-28T20:10:54.358Z,8.77
2023-04-28T20:13:22.241Z,9.13
2023-04-28T20:15:50.211Z,8.07
2023-04-28T20:18:18.126Z,8.57
2023-04-28T20:20:46.074Z,8.67
2023-04-28T20:23:15.315Z,8.70
2023-04-28T20:25:43.247Z,7.73
2023-04-28T20:28:11.349Z,9.43
2023-04-28T20:30:41.857Z,7.10
2023-04-28T20:33:10.487Z,8.60
2023-04-28T20:35:39.022Z,7.37
2023-04-28T20:38:07.015Z,7.37
2023-04-28T20:40:37.069Z,8.00
2023-04-28T20:43:04.981Z,8.10
2023-04-28T20:45:34.535Z,7.80
2023-04-28T20:48:03.118Z,8.63
2023-04-28T20:50:33.336Z,8.97
2023-04-28T20:53:01.478Z,8.53
2023-04-28T20:55:29.453Z,8.97
2023-04-28T20:57:58.638Z,7.77
2023-04-28T21:00:26.592Z,8.30
2023-04-28T21:02:54.742Z,8.73
2023-04-28T21:05:23.722Z,8.33
2023-04-28T21:07:51.693Z,8.50
2023-04-28T21:10:19.747Z,8.73
2023-04-28T21:12:47.601Z,9.00
2023-04-28T21:15:17.219Z,8.20
2023-04-28T21:17:45.086Z,8.30
2023-04-28T21:20:14.625Z,7.97
2023-04-28T21:22:42.495Z,9.57
2023-04-28T21:25:10.741Z,9.77
2023-04-28T21:27:38.660Z,21.40
2023-04-28T21:30:07.765Z,8.97
2023-04-28T21:32:37.063Z,10.07
2023-04-28T21:35:05.450Z,8.80
2023-04-28T21:37:33.406Z,8.17
2023-04-28T21:40:01.964Z,9.10
2023-04-28T21:42:31.762Z,8.50
2023-04-28T21:44:59.879Z,8.87
2023-04-28T21:47:28.292Z,7.80
2023-04-28T21:49:57.618Z,8.10
2023-04-28T21:52:25.661Z,9.10
2023-04-28T21:54:53.766Z,8.57
2023-04-28T21:57:21.727Z,8.50
2023-04-28T21:59:50.716Z,9.20
2023-04-28T22:02:18.975Z,9.33
2023-04-28T22:04:46.976Z,8.70
2023-04-28T22:07:16.205Z,9.60
2023-04-28T22:09:44.161Z,9.77
2023-04-28T22:12:12.092Z,9.00
2023-04-28T22:14:41.544Z,7.90
2023-04-28T22:17:09.945Z,9.03
2023-04-28T22:19:38.047Z,8.33
2023-04-28T22:22:07.673Z,8.60
2023-04-28T22:24:37.168Z,9.30
2023-04-28T22:27:05.264Z,9.40
2023-04-28T22:29:33.178Z,9.10
2023-04-28T22:32:02.593Z,9.10
2023-04-28T22:34:30.729Z,9.27
2023-04-28T22:36:58.663Z,9.90
2023-04-28T22:39:27.065Z,9.73
2023-04-28T22:41:56.347Z,9.87
2023-04-28T22:44:24.256Z,9.43
2023-04-28T22:46:52.938Z,9.53
2023-04-28T22:49:24.716Z,9.40
2023-04-28T22:51:52.838Z,10.17
2023-04-28T22:54:20.969Z,10.50
2023-04-28T22:56:50.310Z,11.20
2023-04-28T22:59:22.135Z,9.97
2023-04-28T23:01:50.348Z,11.50
2023-04-28T23:04:20.272Z,10.40
2023-04-28T23:06:48.634Z,10.23
2023-04-28T23:09:16.609Z,10.20
2023-04-28T23:11:44.498Z,9.60
2023-04-28T23:14:12.463Z,10.50
2023-04-28T23:16:42.085Z,8.00
2023-04-28T23:19:10.136Z,9.90
2023-04-28T23:21:38.522Z,9.70
2023-04-28T23:24:07.466Z,10.77
2023-04-28T23:26:35.521Z,9.17
2023-04-28T23:29:03.467Z,9.60
2023-04-28T23:31:31.710Z,11.43
2023-04-28T23:34:00.978Z,9.83
2023-04-28T23:36:28.999Z,10.43
2023-04-28T23:38:56.884Z,9.47
2023-04-28T23:41:25.015Z,10.23
2023-04-28T23:43:53.035Z,9.50
2023-04-28T23:46:21.457Z,9.43
2023-04-28T23:48:49.360Z,9.97
2023-04-28T23:51:18.648Z,9.67
2023-04-28T23:53:46.562Z,10.30
2023-04-28T23:56:14.547Z,11.40
2023-04-28T23:58:42.863Z,11.50
